createdAt,value
2019-01-06T00:01:41.225Z,8.01
2019-01-06T00:04:13.017Z,7.98
2019-01-06T00:06:44.121Z,7.92
2019-01-06T00:09:16.785Z,8.10
2019-01-06T00:11:47.382Z,8.02
2019-01-06T00:14:17.902Z,7.93
2019-01-06T00:16:47.684Z,7.82
2019-01-06T00:19:17.320Z,7.97
2019-01-06T00:21:48.306Z,7.97
2019-01-06T00:24:20.335Z,7.99
2019-01-06T00:26:52.481Z,7.94
2019-01-06T00:29:24.648Z,8.00
2019-01-06T00:31:53.770Z,7.97
2019-01-06T00:34:25.677Z,8.05
2019-01-06T00:36:55.237Z,8.00
2019-01-06T00:39:25.259Z,7.94
2019-01-06T00:41:53.604Z,7.98
2019-01-06T00:44:25.669Z,7.88
2019-01-06T00:46:57.790Z,7.99
2019-01-06T00:49:28.069Z,7.87
2019-01-06T00:51:58.887Z,7.93
2019-01-06T00:54:29.775Z,7.90
2019-01-06T00:57:02.763Z,7.97
2019-01-06T00:59:33.859Z,7.97
2019-01-06T01:02:04.574Z,8.02
2019-01-06T01:04:36.573Z,7.95
2019-01-06T01:07:08.610Z,7.83
2019-01-06T01:09:41.301Z,7.77
2019-01-06T01:12:12.676Z,7.75
2019-01-06T01:14:44.800Z,7.81
2019-01-06T01:17:16.178Z,7.83
2019-01-06T01:19:46.442Z,7.85
2019-01-06T01:22:16.832Z,7.95
2019-01-06T01:24:48.953Z,7.82
2019-01-06T01:27:19.939Z,7.76
2019-01-06T01:29:51.053Z,7.72
2019-01-06T01:32:20.351Z,7.62
2019-01-06T01:34:53.410Z,7.66
2019-01-06T01:37:24.384Z,7.71
2019-01-06T01:39:54.693Z,7.66
2019-01-06T01:42:24.446Z,7.68
2019-01-06T01:44:56.341Z,7.68
2019-01-06T01:47:28.242Z,7.78
2019-01-06T01:49:58.834Z,7.77
2019-01-06T01:52:29.803Z,7.72
2019-01-06T01:55:01.913Z,7.82
2019-01-06T01:57:32.993Z,7.74
2019-01-06T02:00:04.662Z,7.71
2019-01-06T02:02:35.528Z,7.75
2019-01-06T02:05:08.325Z,7.81
2019-01-06T02:07:38.610Z,7.71
2019-01-06T02:10:09.229Z,7.78
2019-01-06T02:12:40.543Z,7.66
2019-01-06T02:15:12.909Z,7.72
2019-01-06T02:17:45.014Z,7.63
2019-01-06T02:20:17.436Z,7.73
2019-01-06T02:22:49.545Z,7.78
2019-01-06T02:25:20.562Z,7.76
2019-01-06T02:27:52.546Z,7.72
2019-01-06T02:30:24.541Z,7.82
2019-01-06T02:32:55.497Z,7.69
2019-01-06T02:35:24.719Z,7.81
2019-01-06T02:37:55.321Z,7.78
2019-01-06T02:40:27.433Z,7.81
2019-01-06T02:42:56.047Z,7.84
2019-01-06T02:45:27.168Z,7.88
2019-01-06T02:47:58.108Z,7.76
2019-01-06T02:50:29.138Z,7.69
2019-01-06T02:53:00.222Z,7.73
2019-01-06T02:55:32.333Z,7.78
2019-01-06T02:58:04.268Z,7.72
2019-01-06T03:00:34.575Z,7.73
2019-01-06T03:03:06.778Z,7.69
2019-01-06T03:05:38.775Z,7.69
2019-01-06T03:08:09.323Z,7.70
2019-01-06T03:10:40.456Z,7.71
2019-01-06T03:13:11.607Z,7.57
2019-01-06T03:15:44.658Z,7.71
2019-01-06T03:18:15.821Z,7.77
2019-01-06T03:20:48.805Z,7.68
2019-01-06T03:23:19.647Z,7.53
2019-01-06T03:25:50.753Z,7.68
2019-01-06T03:28:21.851Z,7.67
2019-01-06T03:30:52.952Z,7.63
2019-01-06T03:33:22.694Z,7.60
2019-01-06T03:35:54.445Z,7.57
2019-01-06T03:38:26.449Z,7.61
2019-01-06T03:40:59.505Z,7.64
2019-01-06T03:43:30.461Z,7.66
2019-01-06T03:45:58.857Z,7.54
2019-01-06T03:48:29.183Z,7.46
2019-01-06T03:51:01.281Z,7.49
2019-01-06T03:53:30.388Z,7.46
2019-01-06T03:56:01.013Z,7.56
2019-01-06T03:58:32.122Z,7.49
2019-01-06T04:01:04.092Z,7.51
2019-01-06T04:03:36.217Z,7.56
2019-01-06T04:06:04.581Z,7.52
2019-01-06T04:08:35.697Z,7.54
2019-01-06T04:11:14.692Z,7.41
2019-01-06T04:13:40.070Z,7.48
2019-01-06T04:16:09.135Z,7.40
2019-01-06T04:18:44.207Z,7.33
2019-01-06T04:21:16.315Z,7.30
2019-01-06T04:23:47.434Z,7.40
2019-01-06T04:26:17.227Z,7.38
2019-01-06T04:28:48.085Z,7.36
2019-01-06T04:31:20.172Z,7.40
2019-01-06T04:33:51.304Z,7.52
2019-01-06T04:36:22.331Z,7.45
2019-01-06T04:38:53.331Z,7.41
2019-01-06T04:41:24.293Z,7.37
2019-01-06T04:43:55.434Z,7.36
2019-01-06T04:46:27.372Z,7.29
2019-01-06T04:48:59.458Z,7.34
2019-01-06T04:51:31.306Z,7.33
2019-01-06T04:54:01.983Z,7.24
2019-01-06T04:56:33.947Z,7.31
2019-01-06T04:59:05.963Z,7.44
2019-01-06T05:01:37.908Z,7.43
2019-01-06T05:04:08.638Z,7.36
2019-01-06T05:06:39.732Z,7.39
2019-01-06T05:09:11.351Z,7.32
2019-01-06T05:11:42.438Z,7.37
2019-01-06T05:14:13.788Z,7.34
2019-01-06T05:16:44.901Z,7.29
2019-01-06T05:19:15.539Z,7.21
2019-01-06T05:21:46.491Z,7.15
2019-01-06T05:24:18.280Z,7.27
2019-01-06T05:26:47.578Z,7.22
2019-01-06T05:29:18.220Z,7.13
2019-01-06T05:31:49.301Z,7.18
2019-01-06T05:34:19.060Z,7.08
2019-01-06T05:36:49.720Z,7.12
2019-01-06T05:39:20.531Z,7.09
2019-01-06T05:41:52.601Z,7.07
2019-01-06T05:44:23.124Z,7.14
2019-01-06T05:46:55.902Z,7.17
2019-01-06T05:49:28.000Z,7.10
2019-01-06T05:51:59.973Z,7.11
2019-01-06T05:54:28.594Z,7.13
2019-01-06T05:56:57.308Z,7.20
2019-01-06T05:59:28.398Z,7.18
2019-01-06T06:01:59.449Z,7.16
2019-01-06T06:04:30.413Z,7.11
2019-01-06T06:07:11.226Z,7.16
2019-01-06T06:09:38.053Z,7.22
2019-01-06T06:12:09.093Z,7.27
2019-01-06T06:14:40.214Z,7.34
2019-01-06T06:17:12.525Z,7.27
2019-01-06T06:19:44.467Z,7.28
2019-01-06T06:22:15.286Z,7.31
2019-01-06T06:24:46.418Z,7.37
2019-01-06T06:27:17.816Z,7.37
2019-01-06T06:29:50.021Z,7.35
2019-01-06T06:32:19.193Z,7.33
2019-01-06T06:34:51.212Z,7.32
2019-01-06T06:37:22.071Z,7.34
2019-01-06T06:39:52.157Z,7.20
2019-01-06T06:42:23.185Z,7.32
2019-01-06T06:44:55.298Z,7.19
2019-01-06T06:47:27.413Z,7.20
2019-01-06T06:49:59.385Z,7.18
2019-01-06T06:52:31.837Z,7.19
2019-01-06T06:55:03.322Z,7.23
2019-01-06T06:57:41.488Z,7.27
2019-01-06T07:00:16.435Z,7.17
2019-01-06T07:02:49.881Z,7.09
2019-01-06T07:05:19.162Z,7.15
2019-01-06T07:07:51.470Z,7.18
2019-01-06T07:10:32.485Z,7.20
2019-01-06T07:13:04.714Z,7.30
2019-01-06T07:15:36.674Z,7.27
2019-01-06T07:18:09.391Z,7.33
2019-01-06T07:20:40.425Z,7.22
2019-01-06T07:23:10.961Z,7.18
2019-01-06T07:25:41.662Z,7.19
2019-01-06T07:28:10.780Z,7.17
2019-01-06T07:30:43.988Z,7.26
2019-01-06T07:33:15.081Z,7.24
2019-01-06T07:35:46.298Z,7.33
2019-01-06T07:38:17.302Z,7.30
2019-01-06T07:40:49.175Z,7.30
2019-01-06T07:43:21.033Z,7.31
2019-01-06T07:46:03.755Z,7.30
2019-01-06T07:48:35.507Z,7.32
2019-01-06T07:51:08.524Z,7.30
2019-01-06T07:53:43.401Z,7.36
2019-01-06T07:56:13.680Z,7.34
2019-01-06T07:58:43.970Z,7.37
2019-01-06T08:01:15.933Z,7.30
2019-01-06T08:03:48.095Z,7.34
2019-01-06T08:06:19.070Z,7.38
2019-01-06T08:08:50.186Z,7.38
2019-01-06T08:11:20.867Z,7.50
2019-01-06T08:13:51.485Z,7.43
2019-01-06T08:16:23.085Z,7.52
2019-01-06T08:18:53.219Z,7.48
2019-01-06T08:21:24.228Z,7.41
2019-01-06T08:23:57.219Z,7.49
2019-01-06T08:26:28.163Z,7.57
2019-01-06T08:29:00.306Z,7.67
2019-01-06T08:31:31.441Z,7.78
2019-01-06T08:34:04.591Z,7.75
2019-01-06T08:36:36.700Z,7.84
2019-01-06T08:39:09.362Z,7.91
2019-01-06T08:41:40.255Z,7.86
2019-01-06T08:44:10.857Z,7.78
2019-01-06T08:46:41.555Z,7.81
2019-01-06T08:49:12.040Z,8.02
2019-01-06T08:51:44.709Z,8.03
2019-01-06T08:54:16.761Z,8.00
2019-01-06T08:56:48.892Z,7.90
2019-01-06T08:59:19.501Z,7.83
2019-01-06T09:01:51.593Z,7.91
2019-01-06T09:04:22.745Z,8.15
2019-01-06T09:06:53.848Z,8.35
2019-01-06T09:09:25.939Z,8.39
2019-01-06T09:11:56.515Z,8.44
2019-01-06T09:14:26.841Z,8.43
2019-01-06T09:16:56.467Z,8.29
2019-01-06T09:19:28.444Z,8.25
2019-01-06T09:21:59.179Z,8.34
2019-01-06T09:24:31.146Z,8.26
2019-01-06T09:27:03.199Z,8.42
2019-01-06T09:29:34.272Z,8.39
2019-01-06T09:32:06.573Z,8.50
2019-01-06T09:34:37.608Z,8.46
2019-01-06T09:37:06.339Z,8.47
2019-01-06T09:39:38.434Z,8.48
2019-01-06T09:42:09.673Z,8.40
2019-01-06T09:44:41.793Z,8.39
2019-01-06T09:47:12.485Z,8.37
2019-01-06T09:49:45.617Z,8.35
2019-01-06T09:52:16.628Z,8.47
2019-01-06T09:54:47.669Z,8.51
2019-01-06T09:57:19.587Z,8.58
2019-01-06T09:59:50.668Z,8.56
2019-01-06T10:02:21.788Z,8.76
2019-01-06T10:04:51.378Z,8.87
2019-01-06T10:07:22.323Z,8.81
2019-01-06T10:09:53.366Z,8.91
2019-01-06T10:12:24.367Z,8.85
2019-01-06T10:14:56.405Z,8.63
2019-01-06T10:17:28.265Z,8.84
2019-01-06T10:19:59.227Z,8.75
2019-01-06T10:22:31.233Z,8.77
2019-01-06T10:25:04.381Z,8.66
2019-01-06T10:27:35.257Z,8.78
2019-01-06T10:30:08.682Z,8.78
2019-01-06T10:32:39.774Z,8.76
2019-01-06T10:35:10.905Z,8.75
2019-01-06T10:37:41.698Z,8.72
2019-01-06T10:40:12.828Z,8.54
2019-01-06T10:42:43.926Z,8.61
2019-01-06T10:45:16.042Z,8.64
2019-01-06T10:47:48.034Z,8.67
2019-01-06T10:50:19.988Z,8.79
2019-01-06T10:52:50.313Z,8.90
2019-01-06T10:55:21.039Z,8.88
2019-01-06T10:57:50.413Z,8.72
2019-01-06T11:00:21.737Z,8.67
2019-01-06T11:02:53.331Z,8.74
2019-01-06T11:05:25.195Z,8.84
2019-01-06T11:07:57.134Z,8.83
2019-01-06T11:10:29.467Z,8.78
2019-01-06T11:12:59.084Z,8.86
2019-01-06T11:15:31.208Z,8.87
2019-01-06T11:18:02.833Z,8.82
2019-01-06T11:20:33.973Z,8.89
2019-01-06T11:23:04.929Z,8.96
2019-01-06T11:25:36.923Z,9.06
2019-01-06T11:28:07.635Z,9.21
2019-01-06T11:30:38.763Z,9.24
2019-01-06T11:33:10.113Z,9.27
2019-01-06T11:35:38.456Z,9.17
2019-01-06T11:38:09.503Z,9.13
2019-01-06T11:40:40.628Z,9.22
2019-01-06T11:43:11.220Z,9.18
2019-01-06T11:45:43.181Z,9.12
2019-01-06T11:48:14.252Z,9.28
2019-01-06T11:50:45.462Z,9.23
2019-01-06T11:53:18.409Z,8.99
2019-01-06T11:55:49.448Z,9.34
2019-01-06T11:58:21.420Z,9.15
2019-01-06T12:00:52.572Z,9.45
2019-01-06T12:03:24.601Z,9.50
2019-01-06T12:05:55.330Z,9.69
2019-01-06T12:08:27.142Z,9.80
2019-01-06T12:10:59.275Z,9.93
2019-01-06T12:13:28.391Z,9.88
2019-01-06T12:15:58.700Z,9.88
2019-01-06T12:18:29.822Z,10.01
2019-01-06T12:21:00.551Z,10.03
2019-01-06T12:23:29.283Z,9.73
2019-01-06T12:26:00.315Z,9.69
2019-01-06T12:28:32.329Z,9.54
2019-01-06T12:31:03.326Z,9.50
2019-01-06T12:33:34.404Z,9.46
2019-01-06T12:36:06.383Z,9.58
2019-01-06T12:38:37.474Z,9.49
2019-01-06T12:41:08.165Z,9.51
2019-01-06T12:43:40.124Z,9.41
2019-01-06T12:46:11.558Z,9.17
2019-01-06T12:48:42.549Z,8.98
2019-01-06T12:51:13.275Z,9.02
2019-01-06T12:53:44.498Z,8.93
2019-01-06T12:56:16.461Z,9.05
2019-01-06T12:58:47.497Z,9.01
2019-01-06T13:01:18.655Z,8.99
2019-01-06T13:03:49.366Z,9.01
2019-01-06T13:06:20.267Z,8.99
2019-01-06T13:11:35.014Z,8.90
2019-01-06T13:14:17.021Z,8.93
2019-01-06T13:16:46.724Z,9.04
2019-01-06T13:19:18.002Z,8.72
2019-01-06T13:21:50.042Z,8.88
2019-01-06T13:24:21.148Z,8.96
2019-01-06T13:26:52.323Z,9.05
2019-01-06T13:29:21.071Z,9.09
2019-01-06T13:31:51.918Z,9.00
2019-01-06T13:34:21.545Z,8.96
2019-01-06T13:36:50.140Z,9.21
2019-01-06T13:39:20.886Z,9.18
2019-01-06T13:41:51.707Z,9.16
2019-01-06T13:44:22.895Z,8.98
2019-01-06T13:46:53.381Z,8.94
2019-01-06T13:49:22.885Z,9.06
2019-01-06T13:51:53.851Z,9.06
2019-01-06T13:54:29.988Z,9.13
2019-01-06T13:56:55.698Z,8.90
2019-01-06T13:59:26.477Z,9.05
2019-01-06T14:01:57.472Z,9.06
2019-01-06T14:04:27.805Z,9.07
2019-01-06T14:06:59.900Z,9.03
2019-01-06T14:09:30.568Z,9.04
2019-01-06T14:12:02.504Z,9.08
2019-01-06T14:14:32.098Z,8.93
2019-01-06T14:17:04.190Z,8.77
2019-01-06T14:19:35.270Z,8.63
2019-01-06T14:22:06.008Z,8.68
2019-01-06T14:24:35.697Z,8.60
2019-01-06T14:27:05.466Z,8.42
2019-01-06T14:29:38.446Z,8.35
2019-01-06T14:32:08.938Z,8.40
2019-01-06T14:34:40.958Z,8.38
2019-01-06T14:37:11.918Z,8.30
2019-01-06T14:39:45.049Z,8.33
2019-01-06T14:42:14.134Z,8.26
2019-01-06T14:44:47.101Z,8.21
2019-01-06T14:47:19.113Z,8.18
2019-01-06T14:49:50.206Z,8.09
2019-01-06T14:52:26.022Z,8.15
2019-01-06T14:54:58.103Z,8.17
2019-01-06T14:57:28.794Z,8.03
2019-01-06T14:59:57.416Z,7.97
2019-01-06T15:02:28.542Z,7.99
2019-01-06T15:05:00.637Z,7.94
2019-01-06T15:07:32.742Z,7.76
2019-01-06T15:10:02.379Z,7.61
2019-01-06T15:12:34.346Z,7.70
2019-01-06T15:15:05.323Z,7.67
2019-01-06T15:17:37.433Z,7.75
2019-01-06T15:20:10.534Z,7.68
2019-01-06T15:22:40.811Z,7.63
2019-01-06T15:25:12.624Z,7.53
2019-01-06T15:27:43.762Z,7.64
2019-01-06T15:30:17.250Z,7.63
2019-01-06T15:32:48.335Z,7.52
2019-01-06T15:35:16.939Z,7.48
2019-01-06T15:37:47.783Z,7.45
2019-01-06T15:40:20.124Z,7.37
2019-01-06T15:42:52.117Z,7.42
2019-01-06T15:45:23.126Z,7.46
2019-01-06T15:47:54.930Z,7.29
2019-01-06T15:50:26.622Z,7.23
2019-01-06T15:52:57.792Z,7.32
2019-01-06T15:55:27.006Z,7.23
2019-01-06T15:57:59.013Z,7.25
2019-01-06T16:00:30.162Z,7.18
2019-01-06T16:03:00.838Z,7.16
2019-01-06T16:05:31.965Z,7.14
2019-01-06T16:08:04.031Z,7.11
2019-01-06T16:10:34.758Z,7.18
2019-01-06T16:13:08.130Z,7.18
2019-01-06T16:15:39.418Z,7.20
2019-01-06T16:18:11.850Z,7.09
2019-01-06T16:20:41.961Z,7.07
2019-01-06T16:23:10.834Z,7.05
2019-01-06T16:25:44.771Z,7.05
2019-01-06T16:28:15.947Z,7.02
2019-01-06T16:30:48.013Z,7.00
2019-01-06T16:33:19.601Z,6.90
2019-01-06T16:35:50.326Z,6.89
2019-01-06T16:38:20.527Z,6.92
2019-01-06T16:40:54.039Z,7.01
2019-01-06T16:43:25.235Z,7.00
2019-01-06T16:45:57.682Z,7.08
2019-01-06T16:48:28.095Z,7.08
2019-01-06T16:50:59.402Z,7.09
2019-01-06T16:53:31.489Z,7.23
2019-01-06T16:56:04.015Z,7.33
2019-01-06T16:58:35.474Z,7.37
2019-01-06T17:01:06.992Z,7.33
2019-01-06T17:03:38.507Z,7.28
2019-01-06T17:06:07.791Z,7.38
2019-01-06T17:08:39.757Z,7.44
2019-01-06T17:11:11.727Z,7.46
2019-01-06T17:13:42.842Z,7.40
2019-01-06T17:16:14.285Z,7.44
2019-01-06T17:18:45.458Z,7.35
2019-01-06T17:21:18.586Z,7.36
2019-01-06T17:23:49.598Z,7.48
2019-01-06T17:26:19.843Z,7.28
2019-01-06T17:28:50.933Z,7.33
2019-01-06T17:31:23.958Z,7.33
2019-01-06T17:33:53.722Z,7.40
2019-01-06T17:36:25.803Z,7.46
2019-01-06T17:38:57.921Z,7.45
2019-01-06T17:41:31.431Z,7.42
2019-01-06T17:44:02.006Z,7.40
2019-01-06T17:46:38.169Z,7.25
2019-01-06T17:49:09.365Z,7.35
2019-01-06T17:51:40.446Z,7.36
2019-01-06T17:54:11.064Z,7.31
2019-01-06T17:56:42.968Z,7.23
2019-01-06T17:59:13.094Z,7.35
2019-01-06T18:01:46.093Z,7.28
2019-01-06T18:04:17.370Z,7.27
2019-01-06T18:06:47.214Z,7.36
2019-01-06T18:09:19.556Z,7.39
2019-01-06T18:11:50.236Z,7.27
2019-01-06T18:14:19.422Z,7.45
2019-01-06T18:16:51.563Z,7.58
2019-01-06T18:19:22.641Z,7.60
2019-01-06T18:21:54.306Z,7.60
2019-01-06T18:24:26.207Z,7.65
2019-01-06T18:27:07.178Z,7.51
2019-01-06T18:29:50.034Z,7.51
2019-01-06T18:32:23.810Z,7.51
2019-01-06T18:35:02.035Z,7.46
2019-01-06T18:37:34.071Z,7.39
2019-01-06T18:40:05.279Z,7.45
2019-01-06T18:42:37.259Z,7.42
2019-01-06T18:45:09.121Z,7.35
2019-01-06T18:47:38.971Z,7.50
2019-01-06T18:50:12.546Z,7.43
2019-01-06T18:52:43.298Z,7.36
2019-01-06T18:55:16.700Z,7.45
2019-01-06T18:57:48.329Z,7.50
2019-01-06T19:00:18.881Z,7.44
2019-01-06T19:02:50.898Z,7.49
2019-01-06T19:05:23.341Z,7.46
2019-01-06T19:07:54.346Z,7.40
2019-01-06T19:10:25.467Z,7.43
2019-01-06T19:13:02.561Z,7.41
2019-01-06T19:15:29.603Z,7.30
2019-01-06T19:18:00.763Z,7.33
2019-01-06T19:20:31.936Z,7.41
2019-01-06T19:23:02.914Z,7.30
2019-01-06T19:25:34.807Z,7.37
2019-01-06T19:28:06.442Z,7.46
2019-01-06T19:30:37.451Z,7.41
2019-01-06T19:33:08.056Z,7.40
2019-01-06T19:35:36.785Z,7.36
2019-01-06T19:38:09.797Z,7.57
2019-01-06T19:40:41.765Z,7.47
2019-01-06T19:43:13.959Z,7.52
2019-01-06T19:45:44.850Z,7.49
2019-01-06T19:48:15.849Z,7.48
2019-01-06T19:50:45.118Z,7.49
2019-01-06T19:53:17.070Z,7.42
2019-01-06T19:55:49.121Z,7.44
2019-01-06T19:58:19.781Z,7.45
2019-01-06T20:00:51.797Z,7.46
2019-01-06T20:03:23.810Z,7.43
2019-01-06T20:05:54.455Z,7.44
2019-01-06T20:08:25.188Z,7.40
2019-01-06T20:10:55.837Z,7.40
2019-01-06T20:13:26.176Z,7.37
2019-01-06T20:15:54.747Z,7.40
2019-01-06T20:18:26.747Z,7.28
2019-01-06T20:20:56.357Z,7.35
2019-01-06T20:23:27.479Z,7.38
2019-01-06T20:25:58.640Z,7.32
2019-01-06T20:28:29.760Z,7.37
2019-01-06T20:30:58.605Z,7.33
2019-01-06T20:33:29.011Z,7.40
2019-01-06T20:36:01.114Z,7.13
2019-01-06T20:38:32.906Z,7.23
2019-01-06T20:41:03.902Z,7.20
2019-01-06T20:43:34.866Z,7.22
2019-01-06T20:46:06.970Z,7.30
2019-01-06T20:48:38.887Z,7.30
2019-01-06T20:51:10.963Z,7.27
2019-01-06T20:53:43.304Z,7.34
2019-01-06T20:56:16.294Z,7.43
2019-01-06T20:58:48.365Z,7.31
2019-01-06T21:01:19.580Z,7.33
2019-01-06T21:03:52.314Z,7.33
2019-01-06T21:06:24.313Z,7.37
2019-01-06T21:08:54.955Z,7.36
2019-01-06T21:11:25.921Z,7.36
2019-01-06T21:13:57.905Z,7.33
2019-01-06T21:16:28.798Z,7.33
2019-01-06T21:18:59.763Z,7.24
2019-01-06T21:21:34.941Z,7.40
2019-01-06T21:24:06.077Z,7.42
2019-01-06T21:26:36.386Z,7.32
2019-01-06T21:29:06.235Z,7.22
2019-01-06T21:31:38.949Z,7.11
2019-01-06T21:34:10.202Z,7.13
2019-01-06T21:36:42.225Z,7.04
2019-01-06T21:39:13.518Z,7.15
2019-01-06T21:41:44.646Z,7.11
2019-01-06T21:44:15.722Z,7.02
2019-01-06T21:46:47.969Z,7.02
2019-01-06T21:49:16.750Z,7.04
2019-01-06T21:51:48.775Z,7.07
2019-01-06T21:54:20.788Z,7.07
2019-01-06T21:56:52.834Z,6.98
2019-01-06T21:59:24.090Z,6.90
2019-01-06T22:01:55.150Z,6.89
2019-01-06T22:04:27.142Z,6.87
2019-01-06T22:06:58.158Z,6.83
2019-01-06T22:09:30.530Z,6.93
2019-01-06T22:12:01.648Z,7.06
2019-01-06T22:14:33.494Z,6.89
2019-01-06T22:17:01.865Z,7.00
2019-01-06T22:19:32.977Z,6.85
2019-01-06T22:22:05.243Z,6.68
2019-01-06T22:24:34.804Z,6.73
2019-01-06T22:27:06.319Z,6.77
2019-01-06T22:29:35.999Z,6.70
2019-01-06T22:32:08.005Z,6.74
2019-01-06T22:34:39.117Z,6.65
2019-01-06T22:37:09.853Z,6.70
2019-01-06T22:39:40.933Z,6.69
2019-01-06T22:42:12.069Z,6.75
2019-01-06T22:44:43.121Z,6.58
2019-01-06T22:47:15.120Z,6.67
2019-01-06T22:49:46.258Z,6.64
2019-01-06T22:52:17.672Z,6.66
2019-01-06T22:54:48.650Z,6.80
2019-01-06T22:57:19.643Z,6.78
2019-01-06T22:59:50.662Z,6.77
2019-01-06T23:02:21.933Z,6.67
2019-01-06T23:04:52.948Z,6.71
2019-01-06T23:07:24.118Z,6.71
2019-01-06T23:09:56.300Z,6.75
2019-01-06T23:12:28.154Z,6.70
2019-01-06T23:14:58.463Z,6.71
2019-01-06T23:17:29.610Z,6.81
2019-01-06T23:20:01.713Z,6.90
2019-01-06T23:22:33.842Z,7.05
2019-01-06T23:25:04.190Z,6.90
2019-01-06T23:27:32.990Z,6.93
2019-01-06T23:30:05.990Z,7.10
2019-01-06T23:32:37.076Z,7.05
2019-01-06T23:35:08.118Z,7.01
2019-01-06T23:37:41.149Z,7.04
2019-01-06T23:40:13.715Z,7.03
2019-01-06T23:42:43.984Z,7.03
2019-01-06T23:45:17.139Z,6.98
2019-01-06T23:47:47.734Z,6.93
2019-01-06T23:50:18.872Z,7.01
2019-01-06T23:52:49.711Z,6.90
2019-01-06T23:55:22.243Z,6.99
2019-01-06T23:57:53.396Z,6.94
